sensor_id;sensor_type;location;lat;lon;timestamp;temperature;humidity
24645;DHT22;12780;45.502;9.146;2022-09-09T00:09:47;24.00;99.90
24645;DHT22;12780;45.502;9.146;2022-09-09T00:15:20;24.00;99.90
24645;DHT22;12780;45.502;9.146;2022-09-09T00:17:53;23.90;99.90
24645;DHT22;12780;45.502;9.146;2022-09-09T00:20:29;24.00;99.90
24645;DHT22;12780;45.502;9.146;2022-09-09T00:23:03;23.90;99.90
24645;DHT22;12780;45.502;9.146;2022-09-09T00:25:34;23.90;99.90
24645;DHT22;12780;45.502;9.146;2022-09-09T00:28:04;23.90;99.90
24645;DHT22;12780;45.502;9.146;2022-09-09T00:30:35;23.90;99.90
24645;DHT22;12780;45.502;9.146;2022-09-09T00:33:11;23.80;99.90
24645;DHT22;12780;45.502;9.146;2022-09-09T00:35:49;23.80;99.90
24645;DHT22;12780;45.502;9.146;2022-09-09T00:38:37;23.70;99.90
24645;DHT22;12780;45.502;9.146;2022-09-09T00:41:38;23.70;99.90
24645;DHT22;12780;45.502;9.146;2022-09-09T00:44:36;23.70;99.90
24645;DHT22;12780;45.502;9.146;2022-09-09T00:47:25;23.70;99.90
24645;DHT22;12780;45.502;9.146;2022-09-09T00:52:40;23.60;99.90
24645;DHT22;12780;45.502;9.146;2022-09-09T00:58:17;23.70;99.90
24645;DHT22;12780;45.502;9.146;2022-09-09T01:00:52;23.70;99.90
24645;DHT22;12780;45.502;9.146;2022-09-09T01:03:39;23.60;99.90
24645;DHT22;12780;45.502;9.146;2022-09-09T01:06:20;23.60;99.90
24645;DHT22;12780;45.502;9.146;2022-09-09T01:09:08;23.60;99.90
24645;DHT22;12780;45.502;9.146;2022-09-09T01:12:01;23.60;99.90
24645;DHT22;12780;45.502;9.146;2022-09-09T01:17:27;23.60;99.90
24645;DHT22;12780;45.502;9.146;2022-09-09T01:20:12;23.60;99.90
24645;DHT22;12780;45.502;9.146;2022-09-09T01:23:07;23.60;99.90
24645;DHT22;12780;45.502;9.146;2022-09-09T01:26:04;23.70;99.90
24645;DHT22;12780;45.502;9.146;2022-09-09T01:28:35;23.70;99.90
24645;DHT22;12780;45.502;9.146;2022-09-09T01:31:04;23.60;99.90
24645;DHT22;12780;45.502;9.146;2022-09-09T01:33:31;23.60;99.90
24645;DHT22;12780;45.502;9.146;2022-09-09T01:38:28;23.60;99.90
24645;DHT22;12780;45.502;9.146;2022-09-09T01:40:55;23.60;99.90
24645;DHT22;12780;45.502;9.146;2022-09-09T01:43:21;23.60;99.90
24645;DHT22;12780;45.502;9.146;2022-09-09T01:45:50;23.70;99.90
24645;DHT22;12780;45.502;9.146;2022-09-09T01:48:18;23.60;99.90
24645;DHT22;12780;45.502;9.146;2022-09-09T01:50:44;23.60;99.90
24645;DHT22;12780;45.502;9.146;2022-09-09T01:53:11;23.60;99.90
24645;DHT22;12780;45.502;9.146;2022-09-09T01:55:42;23.60;99.90
24645;DHT22;12780;45.502;9.146;2022-09-09T02:01:02;23.50;99.90
24645;DHT22;12780;45.502;9.146;2022-09-09T02:03:32;23.50;99.90
24645;DHT22;12780;45.502;9.146;2022-09-09T02:06:16;23.50;99.90
24645;DHT22;12780;45.502;9.146;2022-09-09T02:08:50;23.60;99.90
24645;DHT22;12780;45.502;9.146;2022-09-09T02:11:19;23.60;99.90
24645;DHT22;12780;45.502;9.146;2022-09-09T02:13:47;23.70;99.90
24645;DHT22;12780;45.502;9.146;2022-09-09T02:16:38;23.70;99.90
24645;DHT22;12780;45.502;9.146;2022-09-09T02:21:31;23.70;99.90
24645;DHT22;12780;45.502;9.146;2022-09-09T02:23:59;23.60;99.90
24645;DHT22;12780;45.502;9.146;2022-09-09T02:26:26;23.60;99.90
24645;DHT22;12780;45.502;9.146;2022-09-09T02:28:55;23.60;99.90
24645;DHT22;12780;45.502;9.146;2022-09-09T02:31:24;23.60;99.90
24645;DHT22;12780;45.502;9.146;2022-09-09T02:33:59;23.60;99.90
24645;DHT22;12780;45.502;9.146;2022-09-09T02:36:29;23.60;99.90
24645;DHT22;12780;45.502;9.146;2022-09-09T02:38:57;23.60;99.90
24645;DHT22;12780;45.502;9.146;2022-09-09T02:41:34;23.60;99.90
24645;DHT22;12780;45.502;9.146;2022-09-09T02:44:01;23.60;99.90
24645;DHT22;12780;45.502;9.146;2022-09-09T02:46:36;23.60;99.90
24645;DHT22;12780;45.502;9.146;2022-09-09T02:49:19;23.60;99.90
24645;DHT22;12780;45.502;9.146;2022-09-09T02:52:02;23.60;99.90
24645;DHT22;12780;45.502;9.146;2022-09-09T02:54:33;23.60;99.90
24645;DHT22;12780;45.502;9.146;2022-09-09T02:57:08;23.60;99.90
24645;DHT22;12780;45.502;9.146;2022-09-09T02:59:36;23.70;99.90
24645;DHT22;12780;45.502;9.146;2022-09-09T03:02:02;23.70;99.90
24645;DHT22;12780;45.502;9.146;2022-09-09T03:04:28;23.70;99.90
24645;DHT22;12780;45.502;9.146;2022-09-09T03:06:54;23.70;99.90
24645;DHT22;12780;45.502;9.146;2022-09-09T03:09:19;23.70;99.90
24645;DHT22;12780;45.502;9.146;2022-09-09T03:11:45;23.60;99.90
24645;DHT22;12780;45.502;9.146;2022-09-09T03:14:11;23.60;99.90
24645;DHT22;12780;45.502;9.146;2022-09-09T03:16:36;23.60;99.90
24645;DHT22;12780;45.502;9.146;2022-09-09T03:19:02;23.50;99.90
24645;DHT22;12780;45.502;9.146;2022-09-09T03:21:28;23.50;99.90
24645;DHT22;12780;45.502;9.146;2022-09-09T03:23:54;23.50;99.90
24645;DHT22;12780;45.502;9.146;2022-09-09T03:26:19;23.40;99.90
24645;DHT22;12780;45.502;9.146;2022-09-09T03:28:45;23.30;99.90
24645;DHT22;12780;45.502;9.146;2022-09-09T03:31:11;23.20;99.90
24645;DHT22;12780;45.502;9.146;2022-09-09T03:33:37;23.20;99.90
24645;DHT22;12780;45.502;9.146;2022-09-09T03:36:04;23.10;99.90
24645;DHT22;12780;45.502;9.146;2022-09-09T03:38:30;23.10;99.90
24645;DHT22;12780;45.502;9.146;2022-09-09T03:40:56;23.00;99.90
24645;DHT22;12780;45.502;9.146;2022-09-09T03:43:26;22.90;99.90
24645;DHT22;12780;45.502;9.146;2022-09-09T03:45:52;22.90;99.90
24645;DHT22;12780;45.502;9.146;2022-09-09T03:48:18;22.90;99.90
24645;DHT22;12780;45.502;9.146;2022-09-09T03:50:49;22.90;99.90
24645;DHT22;12780;45.502;9.146;2022-09-09T03:53:17;22.90;99.90
24645;DHT22;12780;45.502;9.146;2022-09-09T03:55:49;23.00;99.90
24645;DHT22;12780;45.502;9.146;2022-09-09T03:58:15;23.00;99.90
24645;DHT22;12780;45.502;9.146;2022-09-09T04:00:41;23.10;99.90
24645;DHT22;12780;45.502;9.146;2022-09-09T04:03:11;23.00;99.90
24645;DHT22;12780;45.502;9.146;2022-09-09T04:05:39;22.90;99.90
24645;DHT22;12780;45.502;9.146;2022-09-09T04:08:08;22.90;99.90
24645;DHT22;12780;45.502;9.146;2022-09-09T04:10:34;22.80;99.90
24645;DHT22;12780;45.502;9.146;2022-09-09T04:13:03;22.70;99.90
24645;DHT22;12780;45.502;9.146;2022-09-09T04:15:28;22.80;99.90
24645;DHT22;12780;45.502;9.146;2022-09-09T04:17:54;22.70;99.90
24645;DHT22;12780;45.502;9.146;2022-09-09T04:20:20;22.80;99.90
24645;DHT22;12780;45.502;9.146;2022-09-09T04:22:47;22.70;99.90
24645;DHT22;12780;45.502;9.146;2022-09-09T04:25:13;22.80;99.90
24645;DHT22;12780;45.502;9.146;2022-09-09T04:27:39;22.70;99.90
24645;DHT22;12780;45.502;9.146;2022-09-09T04:30:06;22.70;99.90
24645;DHT22;12780;45.502;9.146;2022-09-09T04:32:35;22.70;99.90
24645;DHT22;12780;45.502;9.146;2022-09-09T04:35:02;22.70;99.90
24645;DHT22;12780;45.502;9.146;2022-09-09T04:37:28;22.70;99.90
24645;DHT22;12780;45.502;9.146;2022-09-09T04:39:53;22.60;99.90
24645;DHT22;12780;45.502;9.146;2022-09-09T04:42:19;22.70;99.90
24645;DHT22;12780;45.502;9.146;2022-09-09T04:44:45;22.70;99.90
24645;DHT22;12780;45.502;9.146;2022-09-09T04:47:11;22.70;99.90
24645;DHT22;12780;45.502;9.146;2022-09-09T04:49:36;22.60;99.90
24645;DHT22;12780;45.502;9.146;2022-09-09T04:52:03;22.60;99.90
24645;DHT22;12780;45.502;9.146;2022-09-09T04:54:28;22.60;99.90
24645;DHT22;12780;45.502;9.146;2022-09-09T04:56:54;22.60;99.90
24645;DHT22;12780;45.502;9.146;2022-09-09T04:59:20;22.70;99.90
24645;DHT22;12780;45.502;9.146;2022-09-09T05:01:47;22.60;99.90
24645;DHT22;12780;45.502;9.146;2022-09-09T05:04:12;22.50;99.90
24645;DHT22;12780;45.502;9.146;2022-09-09T05:06:40;22.40;99.90
24645;DHT22;12780;45.502;9.146;2022-09-09T05:09:07;22.20;99.90
24645;DHT22;12780;45.502;9.146;2022-09-09T05:11:34;22.20;99.90
24645;DHT22;12780;45.502;9.146;2022-09-09T05:14:02;22.10;99.90
24645;DHT22;12780;45.502;9.146;2022-09-09T05:16:28;22.10;99.90
24645;DHT22;12780;45.502;9.146;2022-09-09T05:18:55;22.10;99.90
24645;DHT22;12780;45.502;9.146;2022-09-09T05:21:23;22.10;99.90
24645;DHT22;12780;45.502;9.146;2022-09-09T05:23:50;22.20;99.90
24645;DHT22;12780;45.502;9.146;2022-09-09T05:26:18;22.20;99.90
24645;DHT22;12780;45.502;9.146;2022-09-09T05:28:45;22.20;99.90
24645;DHT22;12780;45.502;9.146;2022-09-09T05:31:11;22.30;99.90
24645;DHT22;12780;45.502;9.146;2022-09-09T05:33:39;22.30;99.90
24645;DHT22;12780;45.502;9.146;2022-09-09T05:36:11;22.20;99.90
24645;DHT22;12780;45.502;9.146;2022-09-09T05:38:39;22.20;99.90
24645;DHT22;12780;45.502;9.146;2022-09-09T05:41:05;22.20;99.90
24645;DHT22;12780;45.502;9.146;2022-09-09T05:43:31;22.20;99.90
24645;DHT22;12780;45.502;9.146;2022-09-09T05:46:07;22.30;99.90
24645;DHT22;12780;45.502;9.146;2022-09-09T05:48:35;22.20;99.90
24645;DHT22;12780;45.502;9.146;2022-09-09T05:51:02;22.20;99.90
24645;DHT22;12780;45.502;9.146;2022-09-09T05:53:32;22.10;99.90
24645;DHT22;12780;45.502;9.146;2022-09-09T05:56:04;22.10;99.90
24645;DHT22;12780;45.502;9.146;2022-09-09T05:58:31;22.00;99.90
24645;DHT22;12780;45.502;9.146;2022-09-09T06:01:05;21.90;99.90
24645;DHT22;12780;45.502;9.146;2022-09-09T06:03:32;21.80;99.90
24645;DHT22;12780;45.502;9.146;2022-09-09T06:06:02;21.80;99.90
24645;DHT22;12780;45.502;9.146;2022-09-09T06:08:31;21.80;99.90
24645;DHT22;12780;45.502;9.146;2022-09-09T06:11:11;21.70;99.90
24645;DHT22;12780;45.502;9.146;2022-09-09T06:13:38;21.70;99.90
24645;DHT22;12780;45.502;9.146;2022-09-09T06:16:11;21.60;99.90
24645;DHT22;12780;45.502;9.146;2022-09-09T06:18:38;21.60;99.90
24645;DHT22;12780;45.502;9.146;2022-09-09T06:21:05;21.60;99.90
24645;DHT22;12780;45.502;9.146;2022-09-09T06:23:32;21.60;99.90
24645;DHT22;12780;45.502;9.146;2022-09-09T06:26:03;21.60;99.90
24645;DHT22;12780;45.502;9.146;2022-09-09T06:28:33;21.60;99.90
24645;DHT22;12780;45.502;9.146;2022-09-09T06:31:04;21.60;99.90
24645;DHT22;12780;45.502;9.146;2022-09-09T06:33:31;21.60;99.90
24645;DHT22;12780;45.502;9.146;2022-09-09T06:35:57;21.70;99.90
24645;DHT22;12780;45.502;9.146;2022-09-09T06:38:23;21.70;99.90
24645;DHT22;12780;45.502;9.146;2022-09-09T06:40:53;21.80;99.90
24645;DHT22;12780;45.502;9.146;2022-09-09T06:43:20;21.80;99.90
24645;DHT22;12780;45.502;9.146;2022-09-09T06:45:53;21.90;99.90
24645;DHT22;12780;45.502;9.146;2022-09-09T06:48:19;22.00;99.90
24645;DHT22;12780;45.502;9.146;2022-09-09T06:50:45;22.00;99.90
24645;DHT22;12780;45.502;9.146;2022-09-09T06:53:11;22.10;99.90
24645;DHT22;12780;45.502;9.146;2022-09-09T06:55:37;22.20;99.90
24645;DHT22;12780;45.502;9.146;2022-09-09T06:58:06;22.30;99.90
24645;DHT22;12780;45.502;9.146;2022-09-09T07:00:33;22.50;99.90
24645;DHT22;12780;45.502;9.146;2022-09-09T07:02:58;22.60;99.90
24645;DHT22;12780;45.502;9.146;2022-09-09T07:05:24;22.60;99.90
24645;DHT22;12780;45.502;9.146;2022-09-09T07:07:51;22.50;99.90
24645;DHT22;12780;45.502;9.146;2022-09-09T07:10:17;22.50;99.90
24645;DHT22;12780;45.502;9.146;2022-09-09T07:12:43;22.60;99.90
24645;DHT22;12780;45.502;9.146;2022-09-09T07:15:09;22.70;99.90
24645;DHT22;12780;45.502;9.146;2022-09-09T07:17:35;22.70;99.90
24645;DHT22;12780;45.502;9.146;2022-09-09T07:20:01;22.80;99.90
24645;DHT22;12780;45.502;9.146;2022-09-09T07:22:28;22.80;99.90
24645;DHT22;12780;45.502;9.146;2022-09-09T07:24:53;22.80;99.90
24645;DHT22;12780;45.502;9.146;2022-09-09T07:27:19;22.80;99.90
24645;DHT22;12780;45.502;9.146;2022-09-09T07:29:44;22.80;99.90
24645;DHT22;12780;45.502;9.146;2022-09-09T07:32:11;22.80;99.90
24645;DHT22;12780;45.502;9.146;2022-09-09T07:34:36;22.80;99.90
24645;DHT22;12780;45.502;9.146;2022-09-09T07:37:02;22.90;99.90
24645;DHT22;12780;45.502;9.146;2022-09-09T07:39:28;22.80;99.90
24645;DHT22;12780;45.502;9.146;2022-09-09T07:41:53;22.90;99.90
24645;DHT22;12780;45.502;9.146;2022-09-09T07:44:24;23.00;99.90
24645;DHT22;12780;45.502;9.146;2022-09-09T07:46:52;23.10;99.90
24645;DHT22;12780;45.502;9.146;2022-09-09T07:49:18;23.20;99.90
24645;DHT22;12780;45.502;9.146;2022-09-09T07:51:46;23.40;99.90
24645;DHT22;12780;45.502;9.146;2022-09-09T07:54:14;23.50;99.90
24645;DHT22;12780;45.502;9.146;2022-09-09T07:56:41;23.50;99.90
24645;DHT22;12780;45.502;9.146;2022-09-09T07:59:08;23.60;99.90
24645;DHT22;12780;45.502;9.146;2022-09-09T08:01:41;23.70;99.90
24645;DHT22;12780;45.502;9.146;2022-09-09T08:04:10;23.70;99.90
24645;DHT22;12780;45.502;9.146;2022-09-09T08:06:43;23.80;99.90
24645;DHT22;12780;45.502;9.146;2022-09-09T08:09:10;23.80;99.90
24645;DHT22;12780;45.502;9.146;2022-09-09T08:11:36;23.90;99.90
24645;DHT22;12780;45.502;9.146;2022-09-09T08:14:03;23.90;99.90
24645;DHT22;12780;45.502;9.146;2022-09-09T08:16:31;23.90;99.90
24645;DHT22;12780;45.502;9.146;2022-09-09T08:18:57;23.90;99.90
24645;DHT22;12780;45.502;9.146;2022-09-09T08:21:28;24.00;99.90
24645;DHT22;12780;45.502;9.146;2022-09-09T08:23:55;24.10;99.90
24645;DHT22;12780;45.502;9.146;2022-09-09T08:26:23;24.10;99.90
24645;DHT22;12780;45.502;9.146;2022-09-09T08:28:51;24.00;99.90
24645;DHT22;12780;45.502;9.146;2022-09-09T08:31:20;23.90;99.90
24645;DHT22;12780;45.502;9.146;2022-09-09T08:33:46;23.90;99.90
24645;DHT22;12780;45.502;9.146;2022-09-09T08:36:14;24.00;99.90
24645;DHT22;12780;45.502;9.146;2022-09-09T08:38:43;24.00;99.90
24645;DHT22;12780;45.502;9.146;2022-09-09T08:50:04;24.00;99.90
24645;DHT22;12780;45.502;9.146;2022-09-09T08:55:35;24.20;99.90
24645;DHT22;12780;45.502;9.146;2022-09-09T08:58:50;24.30;99.90
24645;DHT22;12780;45.502;9.146;2022-09-09T09:01:17;24.40;99.90
24645;DHT22;12780;45.502;9.146;2022-09-09T09:06:55;24.70;99.90
24645;DHT22;12780;45.502;9.146;2022-09-09T09:09:32;24.80;99.90
24645;DHT22;12780;45.502;9.146;2022-09-09T09:12:00;24.70;99.90
24645;DHT22;12780;45.502;9.146;2022-09-09T09:14:31;24.60;99.90
24645;DHT22;12780;45.502;9.146;2022-09-09T09:17:16;24.50;99.90
24645;DHT22;12780;45.502;9.146;2022-09-09T09:19:43;24.60;99.90
24645;DHT22;12780;45.502;9.146;2022-09-09T09:22:40;24.80;99.90
24645;DHT22;12780;45.502;9.146;2022-09-09T09:27:59;25.10;99.90
24645;DHT22;12780;45.502;9.146;2022-09-09T09:30:38;25.30;99.90
24645;DHT22;12780;45.502;9.146;2022-09-09T09:35:45;25.70;99.90
24645;DHT22;12780;45.502;9.146;2022-09-09T09:38:37;25.90;99.90
24645;DHT22;12780;45.502;9.146;2022-09-09T09:41:03;26.00;99.90
24645;DHT22;12780;45.502;9.146;2022-09-09T09:43:34;25.90;99.90
24645;DHT22;12780;45.502;9.146;2022-09-09T09:46:02;25.80;99.90
24645;DHT22;12780;45.502;9.146;2022-09-09T09:48:28;25.80;99.90
24645;DHT22;12780;45.502;9.146;2022-09-09T09:50:57;25.80;99.90
24645;DHT22;12780;45.502;9.146;2022-09-09T09:53:26;25.80;99.90
24645;DHT22;12780;45.502;9.146;2022-09-09T09:56:03;25.90;99.90
24645;DHT22;12780;45.502;9.146;2022-09-09T10:01:04;26.00;99.90
24645;DHT22;12780;45.502;9.146;2022-09-09T10:03:32;26.00;99.90
24645;DHT22;12780;45.502;9.146;2022-09-09T10:05:58;25.90;99.90
24645;DHT22;12780;45.502;9.146;2022-09-09T10:08:25;25.90;99.90
24645;DHT22;12780;45.502;9.146;2022-09-09T10:16:50;26.00;99.90
24645;DHT22;12780;45.502;9.146;2022-09-09T10:19:32;26.10;99.90
24645;DHT22;12780;45.502;9.146;2022-09-09T10:22:08;26.00;99.90
24645;DHT22;12780;45.502;9.146;2022-09-09T10:31:02;25.80;99.90
24645;DHT22;12780;45.502;9.146;2022-09-09T10:36:05;25.90;99.90
24645;DHT22;12780;45.502;9.146;2022-09-09T10:38:42;26.00;99.90
24645;DHT22;12780;45.502;9.146;2022-09-09T10:52:34;26.50;99.90
24645;DHT22;12780;45.502;9.146;2022-09-09T10:55:18;26.60;99.90
24645;DHT22;12780;45.502;9.146;2022-09-09T10:57:49;26.60;99.90
24645;DHT22;12780;45.502;9.146;2022-09-09T11:03:03;26.60;99.90
24645;DHT22;12780;45.502;9.146;2022-09-09T11:05:48;26.70;99.90
24645;DHT22;12780;45.502;9.146;2022-09-09T11:08:23;26.90;99.90
24645;DHT22;12780;45.502;9.146;2022-09-09T11:14:15;27.20;99.90
24645;DHT22;12780;45.502;9.146;2022-09-09T11:16:53;27.20;99.90
24645;DHT22;12780;45.502;9.146;2022-09-09T11:19:35;27.20;99.90
24645;DHT22;12780;45.502;9.146;2022-09-09T11:24:48;27.40;99.90
24645;DHT22;12780;45.502;9.146;2022-09-09T11:27:23;27.30;99.90
24645;DHT22;12780;45.502;9.146;2022-09-09T11:33:00;27.30;99.90
24645;DHT22;12780;45.502;9.146;2022-09-09T11:35:52;27.30;99.90
24645;DHT22;12780;45.502;9.146;2022-09-09T11:41:08;27.60;99.90
24645;DHT22;12780;45.502;9.146;2022-09-09T11:43:47;27.70;99.90
24645;DHT22;12780;45.502;9.146;2022-09-09T11:46:16;27.70;99.90
24645;DHT22;12780;45.502;9.146;2022-09-09T11:49:01;27.70;99.90
24645;DHT22;12780;45.502;9.146;2022-09-09T11:51:30;27.90;99.90
24645;DHT22;12780;45.502;9.146;2022-09-09T11:54:01;28.00;99.90
24645;DHT22;12780;45.502;9.146;2022-09-09T11:56:44;28.00;99.90
24645;DHT22;12780;45.502;9.146;2022-09-09T11:59:26;27.80;99.90
24645;DHT22;12780;45.502;9.146;2022-09-09T12:02:08;27.70;99.90
24645;DHT22;12780;45.502;9.146;2022-09-09T12:04:39;27.60;99.90
24645;DHT22;12780;45.502;9.146;2022-09-09T12:09:44;27.70;99.90
24645;DHT22;12780;45.502;9.146;2022-09-09T12:17:25;28.40;99.90
24645;DHT22;12780;45.502;9.146;2022-09-09T12:28:16;29.00;99.90
24645;DHT22;12780;45.502;9.146;2022-09-09T12:31:04;29.10;99.90
24645;DHT22;12780;45.502;9.146;2022-09-09T12:33:37;29.10;99.90
24645;DHT22;12780;45.502;9.146;2022-09-09T12:36:11;29.10;99.90
24645;DHT22;12780;45.502;9.146;2022-09-09T12:38:40;29.00;99.90
24645;DHT22;12780;45.502;9.146;2022-09-09T12:41:06;28.80;99.90
24645;DHT22;12780;45.502;9.146;2022-09-09T12:43:44;28.80;99.90
24645;DHT22;12780;45.502;9.146;2022-09-09T12:46:26;28.70;99.90
24645;DHT22;12780;45.502;9.146;2022-09-09T12:48:55;28.70;99.90
24645;DHT22;12780;45.502;9.146;2022-09-09T12:51:29;28.60;99.90
24645;DHT22;12780;45.502;9.146;2022-09-09T12:53:56;28.60;99.90
24645;DHT22;12780;45.502;9.146;2022-09-09T12:56:31;28.50;99.90
24645;DHT22;12780;45.502;9.146;2022-09-09T12:58:58;28.40;99.90
24645;DHT22;12780;45.502;9.146;2022-09-09T13:01:30;28.40;99.90
24645;DHT22;12780;45.502;9.146;2022-09-09T13:03:56;28.30;99.90
24645;DHT22;12780;45.502;9.146;2022-09-09T13:06:30;28.30;99.90
24645;DHT22;12780;45.502;9.146;2022-09-09T13:08:59;28.30;99.90
24645;DHT22;12780;45.502;9.146;2022-09-09T13:11:35;28.20;99.90
24645;DHT22;12780;45.502;9.146;2022-09-09T13:14:03;28.20;99.90
24645;DHT22;12780;45.502;9.146;2022-09-09T13:16:32;28.00;99.90
24645;DHT22;12780;45.502;9.146;2022-09-09T13:19:14;27.90;99.90
24645;DHT22;12780;45.502;9.146;2022-09-09T13:21:41;27.80;99.90
24645;DHT22;12780;45.502;9.146;2022-09-09T13:24:40;27.80;99.90
24645;DHT22;12780;45.502;9.146;2022-09-09T13:27:28;27.90;99.90
24645;DHT22;12780;45.502;9.146;2022-09-09T13:29:55;27.80;99.90
24645;DHT22;12780;45.502;9.146;2022-09-09T13:32:22;27.90;99.90
24645;DHT22;12780;45.502;9.146;2022-09-09T13:34:59;27.90;99.90
24645;DHT22;12780;45.502;9.146;2022-09-09T13:37:35;27.90;99.90
24645;DHT22;12780;45.502;9.146;2022-09-09T13:40:02;27.90;99.90
24645;DHT22;12780;45.502;9.146;2022-09-09T13:42:30;27.90;99.90
24645;DHT22;12780;45.502;9.146;2022-09-09T13:44:57;27.90;99.90
24645;DHT22;12780;45.502;9.146;2022-09-09T13:47:35;28.00;99.90
24645;DHT22;12780;45.502;9.146;2022-09-09T13:52:53;27.90;99.90
24645;DHT22;12780;45.502;9.146;2022-09-09T13:55:21;27.80;99.90
24645;DHT22;12780;45.502;9.146;2022-09-09T13:58:01;27.70;99.90
24645;DHT22;12780;45.502;9.146;2022-09-09T14:00:30;27.70;99.90
24645;DHT22;12780;45.502;9.146;2022-09-09T14:02:56;27.80;99.90
24645;DHT22;12780;45.502;9.146;2022-09-09T14:05:22;27.80;99.90
24645;DHT22;12780;45.502;9.146;2022-09-09T14:07:49;27.80;99.90
24645;DHT22;12780;45.502;9.146;2022-09-09T14:10:15;27.70;99.90
24645;DHT22;12780;45.502;9.146;2022-09-09T14:12:41;27.70;99.90
24645;DHT22;12780;45.502;9.146;2022-09-09T14:15:09;27.60;99.90
24645;DHT22;12780;45.502;9.146;2022-09-09T14:17:35;27.70;99.90
24645;DHT22;12780;45.502;9.146;2022-09-09T14:20:02;27.80;99.90
24645;DHT22;12780;45.502;9.146;2022-09-09T14:22:28;27.90;99.90
24645;DHT22;12780;45.502;9.146;2022-09-09T14:24:53;27.90;99.90
24645;DHT22;12780;45.502;9.146;2022-09-09T14:27:19;27.90;99.90
24645;DHT22;12780;45.502;9.146;2022-09-09T14:29:45;27.90;99.90
24645;DHT22;12780;45.502;9.146;2022-09-09T14:32:11;27.90;99.90
24645;DHT22;12780;45.502;9.146;2022-09-09T14:34:37;27.80;99.90
24645;DHT22;12780;45.502;9.146;2022-09-09T14:37:02;27.80;99.90
24645;DHT22;12780;45.502;9.146;2022-09-09T14:39:28;27.80;99.90
24645;DHT22;12780;45.502;9.146;2022-09-09T14:41:54;27.70;99.90
24645;DHT22;12780;45.502;9.146;2022-09-09T14:44:20;27.70;99.90
24645;DHT22;12780;45.502;9.146;2022-09-09T14:46:45;27.80;99.90
24645;DHT22;12780;45.502;9.146;2022-09-09T14:49:11;27.80;99.90
24645;DHT22;12780;45.502;9.146;2022-09-09T14:51:38;27.90;99.90
24645;DHT22;12780;45.502;9.146;2022-09-09T14:54:03;27.90;99.90
24645;DHT22;12780;45.502;9.146;2022-09-09T14:56:31;27.90;99.90
24645;DHT22;12780;45.502;9.146;2022-09-09T14:58:58;27.90;99.90
24645;DHT22;12780;45.502;9.146;2022-09-09T15:01:26;27.90;99.90
24645;DHT22;12780;45.502;9.146;2022-09-09T15:03:55;28.00;99.90
24645;DHT22;12780;45.502;9.146;2022-09-09T15:06:22;28.00;99.90
24645;DHT22;12780;45.502;9.146;2022-09-09T15:08:50;28.00;99.90
24645;DHT22;12780;45.502;9.146;2022-09-09T15:11:17;28.10;99.90
24645;DHT22;12780;45.502;9.146;2022-09-09T15:13:43;28.20;99.90
24645;DHT22;12780;45.502;9.146;2022-09-09T15:16:13;28.20;99.90
24645;DHT22;12780;45.502;9.146;2022-09-09T15:18:40;28.20;99.90
24645;DHT22;12780;45.502;9.146;2022-09-09T15:21:09;28.20;99.90
24645;DHT22;12780;45.502;9.146;2022-09-09T15:23:35;28.10;99.90
24645;DHT22;12780;45.502;9.146;2022-09-09T15:26:01;28.10;99.90
24645;DHT22;12780;45.502;9.146;2022-09-09T15:28:28;28.10;99.90
24645;DHT22;12780;45.502;9.146;2022-09-09T15:30:54;28.20;99.90
24645;DHT22;12780;45.502;9.146;2022-09-09T15:33:22;28.20;99.90
24645;DHT22;12780;45.502;9.146;2022-09-09T15:35:48;28.20;99.90
24645;DHT22;12780;45.502;9.146;2022-09-09T15:38:14;28.20;99.90
24645;DHT22;12780;45.502;9.146;2022-09-09T15:40:40;28.20;99.90
24645;DHT22;12780;45.502;9.146;2022-09-09T15:43:06;28.20;99.90
24645;DHT22;12780;45.502;9.146;2022-09-09T15:45:33;28.20;99.90
24645;DHT22;12780;45.502;9.146;2022-09-09T15:48:00;28.20;99.90
24645;DHT22;12780;45.502;9.146;2022-09-09T15:50:26;28.20;99.90
24645;DHT22;12780;45.502;9.146;2022-09-09T15:52:52;28.30;99.90
24645;DHT22;12780;45.502;9.146;2022-09-09T15:55:19;28.20;99.90
24645;DHT22;12780;45.502;9.146;2022-09-09T15:57:45;28.20;99.90
24645;DHT22;12780;45.502;9.146;2022-09-09T16:00:12;28.20;99.90
24645;DHT22;12780;45.502;9.146;2022-09-09T16:02:39;28.20;99.90
24645;DHT22;12780;45.502;9.146;2022-09-09T16:05:05;28.20;99.90
24645;DHT22;12780;45.502;9.146;2022-09-09T16:07:30;28.20;99.90
24645;DHT22;12780;45.502;9.146;2022-09-09T16:09:56;28.10;99.90
24645;DHT22;12780;45.502;9.146;2022-09-09T16:12:22;28.10;99.90
24645;DHT22;12780;45.502;9.146;2022-09-09T16:14:47;28.00;99.90
24645;DHT22;12780;45.502;9.146;2022-09-09T16:17:13;28.00;99.90
24645;DHT22;12780;45.502;9.146;2022-09-09T16:19:39;28.00;99.90
24645;DHT22;12780;45.502;9.146;2022-09-09T16:22:05;28.00;99.90
24645;DHT22;12780;45.502;9.146;2022-09-09T16:24:32;28.00;99.90
24645;DHT22;12780;45.502;9.146;2022-09-09T16:26:58;27.90;99.90
24645;DHT22;12780;45.502;9.146;2022-09-09T16:29:24;27.90;99.90
24645;DHT22;12780;45.502;9.146;2022-09-09T16:31:52;27.90;99.90
24645;DHT22;12780;45.502;9.146;2022-09-09T16:34:19;27.90;99.90
24645;DHT22;12780;45.502;9.146;2022-09-09T16:36:46;27.80;99.90
24645;DHT22;12780;45.502;9.146;2022-09-09T16:39:15;27.80;99.90
24645;DHT22;12780;45.502;9.146;2022-09-09T16:41:42;27.80;99.90
24645;DHT22;12780;45.502;9.146;2022-09-09T16:44:09;27.80;99.90
24645;DHT22;12780;45.502;9.146;2022-09-09T16:46:37;27.70;99.90
24645;DHT22;12780;45.502;9.146;2022-09-09T16:49:07;27.70;99.90
24645;DHT22;12780;45.502;9.146;2022-09-09T16:51:38;27.70;99.90
24645;DHT22;12780;45.502;9.146;2022-09-09T16:54:06;27.60;99.90
24645;DHT22;12780;45.502;9.146;2022-09-09T16:56:34;27.60;99.90
24645;DHT22;12780;45.502;9.146;2022-09-09T16:59:04;27.60;99.90
24645;DHT22;12780;45.502;9.146;2022-09-09T17:01:33;27.60;99.90
24645;DHT22;12780;45.502;9.146;2022-09-09T17:04:01;27.60;99.90
24645;DHT22;12780;45.502;9.146;2022-09-09T17:06:29;27.50;99.90
24645;DHT22;12780;45.502;9.146;2022-09-09T17:08:57;27.50;99.90
24645;DHT22;12780;45.502;9.146;2022-09-09T17:11:23;27.50;99.90
24645;DHT22;12780;45.502;9.146;2022-09-09T17:13:51;27.40;99.90
24645;DHT22;12780;45.502;9.146;2022-09-09T17:16:19;27.30;99.90
24645;DHT22;12780;45.502;9.146;2022-09-09T17:18:47;27.30;99.90
24645;DHT22;12780;45.502;9.146;2022-09-09T17:21:16;27.30;99.90
24645;DHT22;12780;45.502;9.146;2022-09-09T17:23:44;27.20;99.90
24645;DHT22;12780;45.502;9.146;2022-09-09T17:26:13;27.20;99.90
24645;DHT22;12780;45.502;9.146;2022-09-09T17:28:40;27.10;99.90
24645;DHT22;12780;45.502;9.146;2022-09-09T17:31:07;27.10;99.90
24645;DHT22;12780;45.502;9.146;2022-09-09T17:33:35;27.10;99.90
24645;DHT22;12780;45.502;9.146;2022-09-09T17:36:10;27.00;99.90
24645;DHT22;12780;45.502;9.146;2022-09-09T17:38:36;27.00;99.90